Terminal Aerodrome Forecast
Issued by NWS

Home | Current Version | Previous Version | Text Only | Print | Product List | Glossary On
Versions: 1 2 3 4 5 6 7 8 9 10 11 12 13 14 15 16 17 18
000
FTUS41 KGYX 030114 AAA
TAFAUG
TAF AMD
KAUG 030114Z 0301/0324 01004KT 6SM -RADZ BR OVC005
     FM030400 35003KT 1 1/2SM BR OVC003
     FM030700 30002KT 1/4SM FG OVC001
     FM031200 30004KT P6SM OVC015
     FM031700 33003KT P6SM OVC050=

USA.gov is the U.S. government's official web portal to all federal, state and local government web resources and services.